KTUP

Tupelo Regional Airport

Tupelo, Mississippi, USA
KTUP 201358Z 2014/2112 19006KT P6SM FEW040 SCT250 TEMPO 2014/2015 BKN007 FM202300 VRB03KT P6SM VCSH SCT045 BKN250 FM210300 VRB10G15KT P6SM VCTS SCT045CB BKN150
Issued Valid From Valid To
Jul-20 @ 13:58 UTC
(28 minutes ago)
Jul-20 @ 14:00 UTC
(26 minutes ago)
Jul-21 @ 12:00 UTC
(in 22 hours)
Jul-20 @ 14:00 to Jul-20 @ 23:00
KTUP 201358Z 2014/2112 19006KT P6SM FEW040 SCT250
Wind Visibility Clouds
190° at 6 knots Greater than 6 miles
  • Few at 4,000' AGL
  • Scattered at 25,000' AGL
Temporary Jul-20 @ 14:00 to Jul-20 @ 15:00
TEMPO 2014/2015 BKN007
Clouds
  • Broken at 700' AGL
From Jul-20 @ 23:00 to Jul-21 @ 03:00
FM202300 VRB03KT P6SM VCSH SCT045 BKN250
Wind Visibility Clouds
Variable at 3 knots Greater than 6 miles
  • Scattered at 4,500' AGL
  • Broken at 25,000' AGL
From Jul-21 @ 03:00 to Jul-21 @ 12:00
FM210300 VRB10G15KT P6SM VCTS SCT045CB BKN150
Wind Visibility Clouds Conditions
Variable at 10 knots
 Gusting to 15 knots
Greater than 6 miles
  • Scattered at 4,500' AGL
  • Broken at 15,000' AGL
  • Area Thunderstorm
KTUP 201358Z 2014/2112 19006KT P6SM FEW040 SCT250 TEMPO 2014/2015 BKN007 FM202300 VRB03KT P6SM VCSH SCT045 BKN250 FM210300 VRB10G15KT P6SM VCTS SCT045CB BKN150
Issued Jul-20 @ 13:58 UTC
(28 minutes ago)
Valid From Jul-20 @ 14:00 UTC
(26 minutes ago)
Valid To Jul-21 @ 12:00 UTC
(in 22 hours)
Jul-20 @ 14:00 - Jul-20 @ 23:00
Wind Visibility
190° at 6 knots Greater than 6 miles
Clouds
  • Few at 4,000' AGL
  • Scattered at 25,000' AGL
Temporary Jul-20 @ 14:00 - Jul-20 @ 15:00
Clouds
  • Broken at 700' AGL
From Jul-20 @ 23:00 - Jul-21 @ 03:00
Wind Visibility
Variable at 3 knots Greater than 6 miles
Clouds
  • Scattered at 4,500' AGL
  • Broken at 25,000' AGL
From Jul-21 @ 03:00 - Jul-21 @ 12:00
Wind Visibility
Variable at 10 knots
 Gusting to 15 knots
Greater than 6 miles
Clouds
  • Scattered at 4,500' AGL
  • Broken at 15,000' AGL
Conditions
  • Area Thunderstorm